sensor_id;sensor_type;location;lat;lon;timestamp;temperature;humidity
5940;DHT22;2995;-31.998;115.906;2024-01-07T00:02:24;29.80;99.90
5940;DHT22;2995;-31.998;115.906;2024-01-07T00:04:55;30.20;99.90
5940;DHT22;2995;-31.998;115.906;2024-01-07T00:07:26;30.40;99.90
5940;DHT22;2995;-31.998;115.906;2024-01-07T00:10:00;30.50;99.90
5940;DHT22;2995;-31.998;115.906;2024-01-07T00:12:32;30.80;99.90
5940;DHT22;2995;-31.998;115.906;2024-01-07T00:15:03;30.90;99.90
5940;DHT22;2995;-31.998;115.906;2024-01-07T00:17:34;31.20;99.90
5940;DHT22;2995;-31.998;115.906;2024-01-07T00:20:06;31.30;99.90
5940;DHT22;2995;-31.998;115.906;2024-01-07T00:22:38;31.50;99.90
5940;DHT22;2995;-31.998;115.906;2024-01-07T00:25:11;31.70;99.90
5940;DHT22;2995;-31.998;115.906;2024-01-07T00:27:43;31.90;99.90
5940;DHT22;2995;-31.998;115.906;2024-01-07T00:30:15;31.80;99.90
5940;DHT22;2995;-31.998;115.906;2024-01-07T00:32:46;31.60;99.90
5940;DHT22;2995;-31.998;115.906;2024-01-07T00:35:19;31.70;99.90
5940;DHT22;2995;-31.998;115.906;2024-01-07T00:37:52;31.70;99.90
5940;DHT22;2995;-31.998;115.906;2024-01-07T00:40:26;31.80;99.90
5940;DHT22;2995;-31.998;115.906;2024-01-07T00:42:57;31.90;99.90
5940;DHT22;2995;-31.998;115.906;2024-01-07T00:45:28;31.90;99.90
5940;DHT22;2995;-31.998;115.906;2024-01-07T00:48:00;32.20;99.90
5940;DHT22;2995;-31.998;115.906;2024-01-07T00:50:31;32.20;99.90
5940;DHT22;2995;-31.998;115.906;2024-01-07T00:53:02;32.20;99.90
5940;DHT22;2995;-31.998;115.906;2024-01-07T00:55:35;32.20;99.90
5940;DHT22;2995;-31.998;115.906;2024-01-07T00:58:06;32.30;99.90
5940;DHT22;2995;-31.998;115.906;2024-01-07T01:00:37;32.30;99.90
5940;DHT22;2995;-31.998;115.906;2024-01-07T01:03:09;32.50;99.90
5940;DHT22;2995;-31.998;115.906;2024-01-07T01:05:40;32.60;99.90
5940;DHT22;2995;-31.998;115.906;2024-01-07T01:08:11;32.40;99.90
5940;DHT22;2995;-31.998;115.906;2024-01-07T01:10:44;32.40;99.90
5940;DHT22;2995;-31.998;115.906;2024-01-07T01:13:16;32.50;99.90
5940;DHT22;2995;-31.998;115.906;2024-01-07T01:15:47;32.50;99.90
5940;DHT22;2995;-31.998;115.906;2024-01-07T01:18:19;32.80;99.90
5940;DHT22;2995;-31.998;115.906;2024-01-07T01:20:50;32.60;99.90
5940;DHT22;2995;-31.998;115.906;2024-01-07T01:23:21;32.60;99.90
5940;DHT22;2995;-31.998;115.906;2024-01-07T01:25:54;32.60;99.90
5940;DHT22;2995;-31.998;115.906;2024-01-07T01:28:25;32.70;99.90
5940;DHT22;2995;-31.998;115.906;2024-01-07T01:30:57;32.80;99.90
5940;DHT22;2995;-31.998;115.906;2024-01-07T01:33:28;33.10;99.90
5940;DHT22;2995;-31.998;115.906;2024-01-07T01:35:59;33.20;99.90
5940;DHT22;2995;-31.998;115.906;2024-01-07T01:38:34;33.20;99.90
5940;DHT22;2995;-31.998;115.906;2024-01-07T01:41:08;33.40;99.90
5940;DHT22;2995;-31.998;115.906;2024-01-07T01:43:39;33.30;99.90
5940;DHT22;2995;-31.998;115.906;2024-01-07T01:46:10;33.40;99.90
5940;DHT22;2995;-31.998;115.906;2024-01-07T01:48:42;33.30;99.90
5940;DHT22;2995;-31.998;115.906;2024-01-07T01:51:13;33.30;99.90
5940;DHT22;2995;-31.998;115.906;2024-01-07T01:53:46;33.30;99.90
5940;DHT22;2995;-31.998;115.906;2024-01-07T01:56:21;33.60;99.90
5940;DHT22;2995;-31.998;115.906;2024-01-07T01:58:53;34.00;99.90
5940;DHT22;2995;-31.998;115.906;2024-01-07T02:01:24;34.30;99.90
5940;DHT22;2995;-31.998;115.906;2024-01-07T02:03:56;34.40;99.90
5940;DHT22;2995;-31.998;115.906;2024-01-07T02:06:27;34.20;99.90
5940;DHT22;2995;-31.998;115.906;2024-01-07T02:08:58;34.10;99.90
5940;DHT22;2995;-31.998;115.906;2024-01-07T02:11:31;34.20;99.90
5940;DHT22;2995;-31.998;115.906;2024-01-07T02:14:03;34.20;99.90
5940;DHT22;2995;-31.998;115.906;2024-01-07T02:16:35;34.20;99.90
5940;DHT22;2995;-31.998;115.906;2024-01-07T02:19:06;34.40;99.90
5940;DHT22;2995;-31.998;115.906;2024-01-07T02:21:38;34.60;99.90
5940;DHT22;2995;-31.998;115.906;2024-01-07T02:24:16;34.30;99.90
5940;DHT22;2995;-31.998;115.906;2024-01-07T02:26:47;34.00;99.90
5940;DHT22;2995;-31.998;115.906;2024-01-07T02:29:19;34.10;99.90
5940;DHT22;2995;-31.998;115.906;2024-01-07T02:31:50;34.30;99.90
5940;DHT22;2995;-31.998;115.906;2024-01-07T02:34:21;34.60;99.50
5940;DHT22;2995;-31.998;115.906;2024-01-07T02:36:53;34.50;99.40
5940;DHT22;2995;-31.998;115.906;2024-01-07T02:39:26;34.70;99.60
5940;DHT22;2995;-31.998;115.906;2024-01-07T02:41:57;35.20;98.40
5940;DHT22;2995;-31.998;115.906;2024-01-07T02:44:28;35.30;98.20
5940;DHT22;2995;-31.998;115.906;2024-01-07T02:46:59;35.40;97.70
5940;DHT22;2995;-31.998;115.906;2024-01-07T02:49:30;35.30;97.30
5940;DHT22;2995;-31.998;115.906;2024-01-07T02:52:02;35.30;97.10
5940;DHT22;2995;-31.998;115.906;2024-01-07T02:54:35;35.40;96.90
5940;DHT22;2995;-31.998;115.906;2024-01-07T02:57:06;35.40;96.60
5940;DHT22;2995;-31.998;115.906;2024-01-07T02:59:37;35.60;95.90
5940;DHT22;2995;-31.998;115.906;2024-01-07T03:02:08;35.80;95.70
5940;DHT22;2995;-31.998;115.906;2024-01-07T03:04:40;35.70;95.60
5940;DHT22;2995;-31.998;115.906;2024-01-07T03:07:11;35.70;95.20
5940;DHT22;2995;-31.998;115.906;2024-01-07T03:09:44;35.70;94.00
5940;DHT22;2995;-31.998;115.906;2024-01-07T03:12:16;35.60;94.30
5940;DHT22;2995;-31.998;115.906;2024-01-07T03:14:47;35.70;93.70
5940;DHT22;2995;-31.998;115.906;2024-01-07T03:17:19;35.70;93.00
5940;DHT22;2995;-31.998;115.906;2024-01-07T03:19:50;35.70;93.40
5940;DHT22;2995;-31.998;115.906;2024-01-07T03:22:21;36.10;93.00
5940;DHT22;2995;-31.998;115.906;2024-01-07T03:24:54;35.90;92.30
5940;DHT22;2995;-31.998;115.906;2024-01-07T03:27:26;36.00;92.80
5940;DHT22;2995;-31.998;115.906;2024-01-07T03:29:57;36.10;91.60
5940;DHT22;2995;-31.998;115.906;2024-01-07T03:32:28;35.70;91.90
5940;DHT22;2995;-31.998;115.906;2024-01-07T03:35:00;35.80;92.00
5940;DHT22;2995;-31.998;115.906;2024-01-07T03:37:31;36.00;91.90
5940;DHT22;2995;-31.998;115.906;2024-01-07T03:40:07;36.70;91.10
5940;DHT22;2995;-31.998;115.906;2024-01-07T03:42:39;36.60;91.00
5940;DHT22;2995;-31.998;115.906;2024-01-07T03:45:11;36.80;89.90
5940;DHT22;2995;-31.998;115.906;2024-01-07T03:47:42;36.60;90.10
5940;DHT22;2995;-31.998;115.906;2024-01-07T03:50:13;36.60;90.20
5940;DHT22;2995;-31.998;115.906;2024-01-07T03:52:44;36.80;87.70
5940;DHT22;2995;-31.998;115.906;2024-01-07T03:55:17;36.70;90.00
5940;DHT22;2995;-31.998;115.906;2024-01-07T03:57:49;36.90;88.80
5940;DHT22;2995;-31.998;115.906;2024-01-07T04:00:20;37.10;88.50
5940;DHT22;2995;-31.998;115.906;2024-01-07T04:02:52;37.40;88.00
5940;DHT22;2995;-31.998;115.906;2024-01-07T04:05:23;37.50;87.70
5940;DHT22;2995;-31.998;115.906;2024-01-07T04:07:54;37.40;86.00
5940;DHT22;2995;-31.998;115.906;2024-01-07T04:10:27;37.10;87.00
5940;DHT22;2995;-31.998;115.906;2024-01-07T04:12:59;37.20;84.90
5940;DHT22;2995;-31.998;115.906;2024-01-07T04:15:30;37.00;85.60
5940;DHT22;2995;-31.998;115.906;2024-01-07T04:18:03;37.00;85.30
5940;DHT22;2995;-31.998;115.906;2024-01-07T04:20:34;37.10;85.10
5940;DHT22;2995;-31.998;115.906;2024-01-07T04:23:05;37.00;84.70
5940;DHT22;2995;-31.998;115.906;2024-01-07T04:25:38;37.10;84.80
5940;DHT22;2995;-31.998;115.906;2024-01-07T04:28:10;37.40;84.70
5940;DHT22;2995;-31.998;115.906;2024-01-07T04:30:41;37.60;86.10
5940;DHT22;2995;-31.998;115.906;2024-01-07T04:33:12;37.70;91.80
5940;DHT22;2995;-31.998;115.906;2024-01-07T04:35:43;37.50;92.50
5940;DHT22;2995;-31.998;115.906;2024-01-07T04:38:15;37.40;92.40
5940;DHT22;2995;-31.998;115.906;2024-01-07T04:40:48;37.40;92.10
5940;DHT22;2995;-31.998;115.906;2024-01-07T04:43:19;37.50;91.40
5940;DHT22;2995;-31.998;115.906;2024-01-07T04:45:51;37.90;91.10
5940;DHT22;2995;-31.998;115.906;2024-01-07T04:48:22;37.90;90.20
5940;DHT22;2995;-31.998;115.906;2024-01-07T04:50:53;37.50;90.00
5940;DHT22;2995;-31.998;115.906;2024-01-07T04:53:24;37.70;90.10
5940;DHT22;2995;-31.998;115.906;2024-01-07T04:55:57;38.00;89.80
5940;DHT22;2995;-31.998;115.906;2024-01-07T04:58:28;38.10;87.10
5940;DHT22;2995;-31.998;115.906;2024-01-07T05:01:00;37.80;88.20
5940;DHT22;2995;-31.998;115.906;2024-01-07T05:03:31;37.60;88.30
5940;DHT22;2995;-31.998;115.906;2024-01-07T05:06:03;37.50;88.50
5940;DHT22;2995;-31.998;115.906;2024-01-07T05:08:35;37.60;88.10
5940;DHT22;2995;-31.998;115.906;2024-01-07T05:11:08;37.70;88.10
5940;DHT22;2995;-31.998;115.906;2024-01-07T05:13:40;37.70;90.40
5940;DHT22;2995;-31.998;115.906;2024-01-07T05:16:19;37.40;91.70
5940;DHT22;2995;-31.998;115.906;2024-01-07T05:18:50;37.10;92.00
5940;DHT22;2995;-31.998;115.906;2024-01-07T05:21:22;37.00;92.60
5940;DHT22;2995;-31.998;115.906;2024-01-07T05:23:53;37.10;93.50
5940;DHT22;2995;-31.998;115.906;2024-01-07T05:26:26;37.10;93.20
5940;DHT22;2995;-31.998;115.906;2024-01-07T05:28:57;37.10;93.30
5940;DHT22;2995;-31.998;115.906;2024-01-07T05:31:28;37.10;92.50
5940;DHT22;2995;-31.998;115.906;2024-01-07T05:34:00;37.10;92.10
5940;DHT22;2995;-31.998;115.906;2024-01-07T05:36:31;37.20;92.60
5940;DHT22;2995;-31.998;115.906;2024-01-07T05:39:02;37.20;93.40
5940;DHT22;2995;-31.998;115.906;2024-01-07T05:41:38;37.30;94.10
5940;DHT22;2995;-31.998;115.906;2024-01-07T05:44:09;37.30;93.80
5940;DHT22;2995;-31.998;115.906;2024-01-07T05:46:40;37.30;93.20
5940;DHT22;2995;-31.998;115.906;2024-01-07T05:49:11;37.20;93.20
5940;DHT22;2995;-31.998;115.906;2024-01-07T05:51:42;37.20;93.00
5940;DHT22;2995;-31.998;115.906;2024-01-07T05:54:14;37.00;93.40
5940;DHT22;2995;-31.998;115.906;2024-01-07T05:56:47;37.00;93.20
5940;DHT22;2995;-31.998;115.906;2024-01-07T05:59:18;37.00;93.50
5940;DHT22;2995;-31.998;115.906;2024-01-07T06:01:49;37.00;92.80
5940;DHT22;2995;-31.998;115.906;2024-01-07T06:04:20;37.20;93.20
5940;DHT22;2995;-31.998;115.906;2024-01-07T06:06:52;37.00;92.80
5940;DHT22;2995;-31.998;115.906;2024-01-07T06:09:23;36.90;92.80
5940;DHT22;2995;-31.998;115.906;2024-01-07T06:11:57;36.90;92.30
5940;DHT22;2995;-31.998;115.906;2024-01-07T06:14:29;37.10;91.80
5940;DHT22;2995;-31.998;115.906;2024-01-07T06:17:00;37.00;91.80
5940;DHT22;2995;-31.998;115.906;2024-01-07T06:19:31;36.70;92.10
5940;DHT22;2995;-31.998;115.906;2024-01-07T06:22:03;36.70;92.80
5940;DHT22;2995;-31.998;115.906;2024-01-07T06:30:13;36.40;94.00
5940;DHT22;2995;-31.998;115.906;2024-01-07T06:32:45;36.70;93.40
5940;DHT22;2995;-31.998;115.906;2024-01-07T06:35:16;36.80;92.80
5940;DHT22;2995;-31.998;115.906;2024-01-07T06:37:47;36.60;92.30
5940;DHT22;2995;-31.998;115.906;2024-01-07T06:40:18;36.50;92.50
5940;DHT22;2995;-31.998;115.906;2024-01-07T06:42:53;36.50;92.70
5940;DHT22;2995;-31.998;115.906;2024-01-07T06:45:24;36.60;92.60
5940;DHT22;2995;-31.998;115.906;2024-01-07T06:47:55;36.60;92.60
5940;DHT22;2995;-31.998;115.906;2024-01-07T06:50:26;36.60;92.20
5940;DHT22;2995;-31.998;115.906;2024-01-07T06:52:58;36.40;92.50
5940;DHT22;2995;-31.998;115.906;2024-01-07T06:55:29;36.40;92.40
5940;DHT22;2995;-31.998;115.906;2024-01-07T06:58:02;36.40;92.20
5940;DHT22;2995;-31.998;115.906;2024-01-07T07:00:33;36.50;92.40
5940;DHT22;2995;-31.998;115.906;2024-01-07T07:03:04;36.50;92.20
5940;DHT22;2995;-31.998;115.906;2024-01-07T07:05:36;36.40;91.90
5940;DHT22;2995;-31.998;115.906;2024-01-07T07:08:07;36.40;91.70
5940;DHT22;2995;-31.998;115.906;2024-01-07T07:10:38;36.20;92.00
5940;DHT22;2995;-31.998;115.906;2024-01-07T07:13:12;36.30;92.20
5940;DHT22;2995;-31.998;115.906;2024-01-07T07:15:43;36.40;92.20
5940;DHT22;2995;-31.998;115.906;2024-01-07T07:18:14;36.40;92.90
5940;DHT22;2995;-31.998;115.906;2024-01-07T07:20:45;36.50;92.60
5940;DHT22;2995;-31.998;115.906;2024-01-07T07:23:16;36.40;92.80
5940;DHT22;2995;-31.998;115.906;2024-01-07T07:25:48;36.40;93.20
5940;DHT22;2995;-31.998;115.906;2024-01-07T07:28:21;36.30;93.10
5940;DHT22;2995;-31.998;115.906;2024-01-07T07:30:52;36.10;93.70
5940;DHT22;2995;-31.998;115.906;2024-01-07T07:33:23;35.90;93.80
5940;DHT22;2995;-31.998;115.906;2024-01-07T07:35:55;35.80;93.60
5940;DHT22;2995;-31.998;115.906;2024-01-07T07:38:26;35.80;93.50
5940;DHT22;2995;-31.998;115.906;2024-01-07T07:40:57;35.90;93.20
5940;DHT22;2995;-31.998;115.906;2024-01-07T07:43:30;35.90;93.20
5940;DHT22;2995;-31.998;115.906;2024-01-07T07:46:01;36.10;93.20
5940;DHT22;2995;-31.998;115.906;2024-01-07T07:48:32;36.20;93.30
5940;DHT22;2995;-31.998;115.906;2024-01-07T07:51:04;36.10;92.70
5940;DHT22;2995;-31.998;115.906;2024-01-07T07:53:35;35.80;92.30
5940;DHT22;2995;-31.998;115.906;2024-01-07T07:56:09;35.60;92.30
5940;DHT22;2995;-31.998;115.906;2024-01-07T07:58:42;35.70;92.50
5940;DHT22;2995;-31.998;115.906;2024-01-07T08:01:13;36.00;91.80
5940;DHT22;2995;-31.998;115.906;2024-01-07T08:03:44;35.80;91.60
5940;DHT22;2995;-31.998;115.906;2024-01-07T08:06:15;35.70;91.40
5940;DHT22;2995;-31.998;115.906;2024-01-07T08:08:47;35.60;92.10
5940;DHT22;2995;-31.998;115.906;2024-01-07T08:11:18;35.70;92.60
5940;DHT22;2995;-31.998;115.906;2024-01-07T08:13:51;35.80;92.80
5940;DHT22;2995;-31.998;115.906;2024-01-07T08:16:22;35.80;92.50
5940;DHT22;2995;-31.998;115.906;2024-01-07T08:18:53;35.60;92.40
5940;DHT22;2995;-31.998;115.906;2024-01-07T08:21:25;35.40;92.70
5940;DHT22;2995;-31.998;115.906;2024-01-07T08:23:56;35.30;92.90
5940;DHT22;2995;-31.998;115.906;2024-01-07T08:26:27;35.30;93.00
5940;DHT22;2995;-31.998;115.906;2024-01-07T08:29:01;35.30;93.10
5940;DHT22;2995;-31.998;115.906;2024-01-07T08:31:32;35.40;93.20
5940;DHT22;2995;-31.998;115.906;2024-01-07T08:34:04;35.40;93.00
5940;DHT22;2995;-31.998;115.906;2024-01-07T08:36:35;35.30;92.30
5940;DHT22;2995;-31.998;115.906;2024-01-07T08:39:06;34.90;91.40
5940;DHT22;2995;-31.998;115.906;2024-01-07T08:41:39;34.80;92.10
5940;DHT22;2995;-31.998;115.906;2024-01-07T08:44:12;34.70;92.20
5940;DHT22;2995;-31.998;115.906;2024-01-07T08:46:43;34.80;92.90
5940;DHT22;2995;-31.998;115.906;2024-01-07T08:49:14;34.60;93.40
5940;DHT22;2995;-31.998;115.906;2024-01-07T08:51:46;34.60;92.70
5940;DHT22;2995;-31.998;115.906;2024-01-07T08:54:17;34.50;92.90
5940;DHT22;2995;-31.998;115.906;2024-01-07T08:56:48;34.40;93.10
5940;DHT22;2995;-31.998;115.906;2024-01-07T08:59:21;34.30;93.10
5940;DHT22;2995;-31.998;115.906;2024-01-07T09:01:52;34.20;93.10
5940;DHT22;2995;-31.998;115.906;2024-01-07T09:04:24;34.00;93.30
5940;DHT22;2995;-31.998;115.906;2024-01-07T09:06:55;34.00;93.00
5940;DHT22;2995;-31.998;115.906;2024-01-07T09:09:26;34.00;93.30
5940;DHT22;2995;-31.998;115.906;2024-01-07T09:11:57;34.00;93.00
5940;DHT22;2995;-31.998;115.906;2024-01-07T09:14:31;34.00;92.50
5940;DHT22;2995;-31.998;115.906;2024-01-07T09:17:02;33.70;92.50
5940;DHT22;2995;-31.998;115.906;2024-01-07T09:19:34;33.50;92.60
5940;DHT22;2995;-31.998;115.906;2024-01-07T09:22:05;33.50;92.40
5940;DHT22;2995;-31.998;115.906;2024-01-07T09:24:36;33.50;92.10
5940;DHT22;2995;-31.998;115.906;2024-01-07T09:27:07;33.50;92.20
5940;DHT22;2995;-31.998;115.906;2024-01-07T09:29:40;33.50;92.20
5940;DHT22;2995;-31.998;115.906;2024-01-07T09:32:12;33.50;92.40
5940;DHT22;2995;-31.998;115.906;2024-01-07T09:34:43;33.50;92.30
5940;DHT22;2995;-31.998;115.906;2024-01-07T09:37:14;33.40;92.50
5940;DHT22;2995;-31.998;115.906;2024-01-07T09:39:45;33.50;92.50
5940;DHT22;2995;-31.998;115.906;2024-01-07T09:42:19;33.50;92.60
5940;DHT22;2995;-31.998;115.906;2024-01-07T09:44:52;33.60;92.90
5940;DHT22;2995;-31.998;115.906;2024-01-07T09:47:24;33.60;92.00
5940;DHT22;2995;-31.998;115.906;2024-01-07T09:49:55;33.50;91.40
5940;DHT22;2995;-31.998;115.906;2024-01-07T09:52:27;33.50;91.00
5940;DHT22;2995;-31.998;115.906;2024-01-07T09:55:01;33.50;90.80
5940;DHT22;2995;-31.998;115.906;2024-01-07T09:57:33;33.40;90.80
5940;DHT22;2995;-31.998;115.906;2024-01-07T10:00:07;33.40;91.00
5940;DHT22;2995;-31.998;115.906;2024-01-07T10:02:39;33.40;90.90
5940;DHT22;2995;-31.998;115.906;2024-01-07T10:05:11;33.30;90.60
5940;DHT22;2995;-31.998;115.906;2024-01-07T10:07:42;33.30;90.50
5940;DHT22;2995;-31.998;115.906;2024-01-07T10:10:15;33.30;90.80
5940;DHT22;2995;-31.998;115.906;2024-01-07T10:12:46;33.20;90.50
5940;DHT22;2995;-31.998;115.906;2024-01-07T10:15:23;33.20;90.40
5940;DHT22;2995;-31.998;115.906;2024-01-07T10:18:00;33.00;90.70
5940;DHT22;2995;-31.998;115.906;2024-01-07T10:20:33;32.90;90.60
5940;DHT22;2995;-31.998;115.906;2024-01-07T10:23:05;32.80;90.60
5940;DHT22;2995;-31.998;115.906;2024-01-07T10:25:37;32.70;90.50
5940;DHT22;2995;-31.998;115.906;2024-01-07T10:28:08;32.70;90.90
5940;DHT22;2995;-31.998;115.906;2024-01-07T10:30:50;32.70;90.80
5940;DHT22;2995;-31.998;115.906;2024-01-07T10:33:21;32.70;90.50
5940;DHT22;2995;-31.998;115.906;2024-01-07T10:36:00;32.60;90.30
5940;DHT22;2995;-31.998;115.906;2024-01-07T10:38:32;32.60;90.80
5940;DHT22;2995;-31.998;115.906;2024-01-07T10:41:06;32.60;90.90
5940;DHT22;2995;-31.998;115.906;2024-01-07T10:43:40;32.50;90.80
5940;DHT22;2995;-31.998;115.906;2024-01-07T10:46:15;32.40;90.60
5940;DHT22;2995;-31.998;115.906;2024-01-07T10:48:54;32.30;90.60
5940;DHT22;2995;-31.998;115.906;2024-01-07T10:51:28;32.30;90.70
5940;DHT22;2995;-31.998;115.906;2024-01-07T10:54:04;32.20;90.80
5940;DHT22;2995;-31.998;115.906;2024-01-07T10:56:42;32.10;90.80
5940;DHT22;2995;-31.998;115.906;2024-01-07T10:59:14;32.00;90.80
5940;DHT22;2995;-31.998;115.906;2024-01-07T11:01:48;32.00;90.90
5940;DHT22;2995;-31.998;115.906;2024-01-07T11:04:26;31.80;90.90
5940;DHT22;2995;-31.998;115.906;2024-01-07T11:07:09;31.80;91.00
5940;DHT22;2995;-31.998;115.906;2024-01-07T11:09:50;31.70;90.90
5940;DHT22;2995;-31.998;115.906;2024-01-07T11:12:25;31.70;91.00
5940;DHT22;2995;-31.998;115.906;2024-01-07T11:14:57;31.60;91.20
5940;DHT22;2995;-31.998;115.906;2024-01-07T11:17:45;31.50;91.30
5940;DHT22;2995;-31.998;115.906;2024-01-07T11:20:21;31.50;91.20
5940;DHT22;2995;-31.998;115.906;2024-01-07T11:23:26;31.40;91.20
5940;DHT22;2995;-31.998;115.906;2024-01-07T11:25:59;31.30;91.20
5940;DHT22;2995;-31.998;115.906;2024-01-07T11:28:46;31.30;91.20
5940;DHT22;2995;-31.998;115.906;2024-01-07T11:31:18;31.30;91.30
5940;DHT22;2995;-31.998;115.906;2024-01-07T11:33:52;31.20;91.40
5940;DHT22;2995;-31.998;115.906;2024-01-07T11:36:23;31.20;91.40
5940;DHT22;2995;-31.998;115.906;2024-01-07T11:38:54;31.10;91.40
5940;DHT22;2995;-31.998;115.906;2024-01-07T11:41:27;31.00;91.60
5940;DHT22;2995;-31.998;115.906;2024-01-07T11:44:00;31.00;91.70
5940;DHT22;2995;-31.998;115.906;2024-01-07T11:46:31;30.90;91.70
5940;DHT22;2995;-31.998;115.906;2024-01-07T11:49:04;30.90;91.70
5940;DHT22;2995;-31.998;115.906;2024-01-07T11:51:35;30.90;91.80
5940;DHT22;2995;-31.998;115.906;2024-01-07T11:54:07;30.80;92.00
5940;DHT22;2995;-31.998;115.906;2024-01-07T11:56:39;30.70;91.90
5940;DHT22;2995;-31.998;115.906;2024-01-07T11:59:11;30.70;91.80
5940;DHT22;2995;-31.998;115.906;2024-01-07T12:01:42;30.60;91.70
5940;DHT22;2995;-31.998;115.906;2024-01-07T12:04:15;30.50;91.70
5940;DHT22;2995;-31.998;115.906;2024-01-07T12:06:46;30.50;91.80
5940;DHT22;2995;-31.998;115.906;2024-01-07T12:09:18;30.50;92.00
5940;DHT22;2995;-31.998;115.906;2024-01-07T12:11:49;30.50;91.70
5940;DHT22;2995;-31.998;115.906;2024-01-07T12:14:21;30.40;91.80
5940;DHT22;2995;-31.998;115.906;2024-01-07T12:16:52;30.30;91.80
5940;DHT22;2995;-31.998;115.906;2024-01-07T12:19:25;30.20;91.80
5940;DHT22;2995;-31.998;115.906;2024-01-07T12:22:03;30.20;91.90
5940;DHT22;2995;-31.998;115.906;2024-01-07T12:24:34;30.10;92.00
5940;DHT22;2995;-31.998;115.906;2024-01-07T12:27:06;30.10;92.10
5940;DHT22;2995;-31.998;115.906;2024-01-07T12:29:37;30.00;92.30
5940;DHT22;2995;-31.998;115.906;2024-01-07T12:32:08;30.10;92.30
5940;DHT22;2995;-31.998;115.906;2024-01-07T12:34:42;30.00;92.30
5940;DHT22;2995;-31.998;115.906;2024-01-07T12:37:14;30.00;92.30
5940;DHT22;2995;-31.998;115.906;2024-01-07T12:39:45;29.90;92.30
5940;DHT22;2995;-31.998;115.906;2024-01-07T12:42:17;29.80;92.60
5940;DHT22;2995;-31.998;115.906;2024-01-07T12:44:49;29.80;92.60
5940;DHT22;2995;-31.998;115.906;2024-01-07T12:47:19;29.70;92.70
5940;DHT22;2995;-31.998;115.906;2024-01-07T12:49:53;29.60;92.70
5940;DHT22;2995;-31.998;115.906;2024-01-07T12:52:25;29.50;92.80
5940;DHT22;2995;-31.998;115.906;2024-01-07T12:54:57;29.60;92.70
5940;DHT22;2995;-31.998;115.906;2024-01-07T12:57:30;29.50;92.90
5940;DHT22;2995;-31.998;115.906;2024-01-07T13:00:02;29.40;92.80
5940;DHT22;2995;-31.998;115.906;2024-01-07T13:02:35;29.40;92.90
5940;DHT22;2995;-31.998;115.906;2024-01-07T13:05:10;29.30;93.00
5940;DHT22;2995;-31.998;115.906;2024-01-07T13:07:41;29.30;93.00
5940;DHT22;2995;-31.998;115.906;2024-01-07T13:10:12;29.10;93.10
5940;DHT22;2995;-31.998;115.906;2024-01-07T13:12:44;29.10;93.10
5940;DHT22;2995;-31.998;115.906;2024-01-07T13:15:15;29.10;93.10
5940;DHT22;2995;-31.998;115.906;2024-01-07T13:17:46;29.00;93.20
5940;DHT22;2995;-31.998;115.906;2024-01-07T13:20:21;29.00;93.20
5940;DHT22;2995;-31.998;115.906;2024-01-07T13:22:52;29.10;93.30
5940;DHT22;2995;-31.998;115.906;2024-01-07T13:25:23;29.00;93.40
5940;DHT22;2995;-31.998;115.906;2024-01-07T13:27:55;29.00;93.10
5940;DHT22;2995;-31.998;115.906;2024-01-07T13:30:26;28.80;93.60
5940;DHT22;2995;-31.998;115.906;2024-01-07T13:32:57;29.00;93.20
5940;DHT22;2995;-31.998;115.906;2024-01-07T13:35:30;28.90;93.20
5940;DHT22;2995;-31.998;115.906;2024-01-07T13:38:02;28.70;93.30
5940;DHT22;2995;-31.998;115.906;2024-01-07T13:40:33;28.60;93.30
5940;DHT22;2995;-31.998;115.906;2024-01-07T13:43:05;28.60;93.40
5940;DHT22;2995;-31.998;115.906;2024-01-07T13:45:36;28.70;93.30
5940;DHT22;2995;-31.998;115.906;2024-01-07T13:48:08;28.60;93.40
5940;DHT22;2995;-31.998;115.906;2024-01-07T13:50:41;28.50;93.60
5940;DHT22;2995;-31.998;115.906;2024-01-07T13:53:13;28.50;93.60
5940;DHT22;2995;-31.998;115.906;2024-01-07T13:55:45;28.70;93.40
5940;DHT22;2995;-31.998;115.906;2024-01-07T13:58:16;28.40;93.70
5940;DHT22;2995;-31.998;115.906;2024-01-07T14:00:48;28.40;93.80
5940;DHT22;2995;-31.998;115.906;2024-01-07T14:03:20;28.50;93.50
5940;DHT22;2995;-31.998;115.906;2024-01-07T14:05:54;28.30;93.80
5940;DHT22;2995;-31.998;115.906;2024-01-07T14:08:25;28.40;93.70
5940;DHT22;2995;-31.998;115.906;2024-01-07T14:10:56;28.30;93.90
5940;DHT22;2995;-31.998;115.906;2024-01-07T14:13:27;28.30;94.00
5940;DHT22;2995;-31.998;115.906;2024-01-07T14:15:58;28.20;94.00
5940;DHT22;2995;-31.998;115.906;2024-01-07T14:18:30;28.10;94.20
5940;DHT22;2995;-31.998;115.906;2024-01-07T14:21:03;28.10;94.30
5940;DHT22;2995;-31.998;115.906;2024-01-07T14:23:35;28.00;94.30
5940;DHT22;2995;-31.998;115.906;2024-01-07T14:26:06;28.10;94.30
5940;DHT22;2995;-31.998;115.906;2024-01-07T14:28:38;28.20;94.30
5940;DHT22;2995;-31.998;115.906;2024-01-07T14:31:09;28.20;94.30
5940;DHT22;2995;-31.998;115.906;2024-01-07T14:33:41;28.20;94.40
5940;DHT22;2995;-31.998;115.906;2024-01-07T14:36:14;28.10;94.40
5940;DHT22;2995;-31.998;115.906;2024-01-07T14:38:46;28.00;94.80
5940;DHT22;2995;-31.998;115.906;2024-01-07T14:41:17;27.80;94.70
5940;DHT22;2995;-31.998;115.906;2024-01-07T14:43:49;27.70;94.70
5940;DHT22;2995;-31.998;115.906;2024-01-07T14:46:21;27.80;95.00
5940;DHT22;2995;-31.998;115.906;2024-01-07T14:48:53;27.80;95.00
5940;DHT22;2995;-31.998;115.906;2024-01-07T14:51:26;27.70;95.10
5940;DHT22;2995;-31.998;115.906;2024-01-07T14:53:57;27.60;95.20
5940;DHT22;2995;-31.998;115.906;2024-01-07T14:56:28;27.80;95.10
5940;DHT22;2995;-31.998;115.906;2024-01-07T14:58:59;27.80;95.20
5940;DHT22;2995;-31.998;115.906;2024-01-07T15:01:30;27.90;95.40
5940;DHT22;2995;-31.998;115.906;2024-01-07T15:04:02;27.80;95.20
5940;DHT22;2995;-31.998;115.906;2024-01-07T15:06:41;27.80;95.30
5940;DHT22;2995;-31.998;115.906;2024-01-07T15:09:14;27.40;95.50
5940;DHT22;2995;-31.998;115.906;2024-01-07T15:11:45;27.40;95.50
5940;DHT22;2995;-31.998;115.906;2024-01-07T15:14:17;27.40;95.80
5940;DHT22;2995;-31.998;115.906;2024-01-07T15:16:48;27.50;95.60
5940;DHT22;2995;-31.998;115.906;2024-01-07T15:19:22;27.50;95.70
5940;DHT22;2995;-31.998;115.906;2024-01-07T15:21:55;27.70;95.80
5940;DHT22;2995;-31.998;115.906;2024-01-07T15:24:27;27.70;95.70
5940;DHT22;2995;-31.998;115.906;2024-01-07T15:26:58;27.40;95.70
5940;DHT22;2995;-31.998;115.906;2024-01-07T15:29:29;27.30;96.10
5940;DHT22;2995;-31.998;115.906;2024-01-07T15:32:00;27.40;95.90
5940;DHT22;2995;-31.998;115.906;2024-01-07T15:34:32;27.30;96.20
5940;DHT22;2995;-31.998;115.906;2024-01-07T15:37:05;27.20;96.30
5940;DHT22;2995;-31.998;115.906;2024-01-07T15:39:37;27.40;96.40
5940;DHT22;2995;-31.998;115.906;2024-01-07T15:42:08;27.40;95.90
5940;DHT22;2995;-31.998;115.906;2024-01-07T15:44:40;27.40;96.30
5940;DHT22;2995;-31.998;115.906;2024-01-07T15:47:11;27.60;96.40
5940;DHT22;2995;-31.998;115.906;2024-01-07T15:49:43;27.60;96.40
5940;DHT22;2995;-31.998;115.906;2024-01-07T15:52:16;27.60;96.30